PWSweather.com
Personal Weather Stations
Station Observations
KTXROCKW1
Rockwall And Hunt Counties, Rockwall, TX 75087

Rockwall And Hunt CountiesRockwall, TX 75087

Lat: 32.92, Lon: -96.46

Elevation: 563

Station Type:

http://www.telehobbies.com/weather

Latest ConditionsUpdated 7:30:23 PM CDT Saturday, Oct 20, 2018
Currently Today's Max Today's Min Today's Average
Temperature 58.8°F14.9°C 60.4°F15.8°C 58.2°F14.6°C 59.1°F15.1°C
Dew Point 0.0°F-17.8°C 0.0°F-17.8°C 0.0°F-17.8°C 0.0°F-17.8°C
Winds Calm Calm Calm -Calm - - Calm Calm
Wind Gusts -- -- - -
Humidity 0% 0% 0% 0%
Pressure 29.80 in1009.1 mb 29.80 in1009.1 mb 29.69 in1005.4 mb -
Hour Temp Dew Point Humidity Winds Wind Gusts Pressure Precip Precip Rate Daily Precip Total
07:30 PM 58.8°F14.9°C 0.0°F-17.8°C 0% Calm Calm -- 29.80 in1009.1 mb 0.00 in0.0 mm 0.00 in0.0 mm 0.01 in0.3 mm
07:25 PM 58.8°F14.9°C 0.0°F-17.8°C 0% Calm Calm -- 29.80 in1009.1 mb 0.00 in0.0 mm 0.00 in0.0 mm 0.01 in0.3 mm
07:20 PM 58.9°F14.9°C 0.0°F-17.8°C 0% Calm Calm -- 29.80 in1009.1 mb 0.00 in0.0 mm 0.00 in0.0 mm 0.01 in0.3 mm
07:15 PM 58.9°F14.9°C 0.0°F-17.8°C 0% Calm Calm -- 29.80 in1009.1 mb 0.00 in0.0 mm 0.00 in0.0 mm 0.01 in0.3 mm
07:10 PM 59.0°F15.0°C 0.0°F-17.8°C 0% Calm Calm -- 29.79 in1008.8 mb 0.00 in0.0 mm 0.00 in0.0 mm 0.01 in0.3 mm
07:05 PM 59.0°F15.0°C 0.0°F-17.8°C 0% Calm Calm -- 29.80 in1009.1 mb 0.00 in0.0 mm 0.00 in0.0 mm 0.01 in0.3 mm
07:00 PM 59.1°F15.1°C 0.0°F-17.8°C 0% Calm Calm -- 29.79 in1008.8 mb 0.00 in0.0 mm 0.00 in0.0 mm 0.01 in0.3 mm
06:55 PM 59.1°F15.1°C 0.0°F-17.8°C 0% Calm Calm -- 29.79 in1008.8 mb 0.00 in0.0 mm 0.00 in0.0 mm 0.01 in0.3 mm
06:50 PM 59.2°F15.1°C 0.0°F-17.8°C 0% Calm Calm -- 29.79 in1008.8 mb 0.00 in0.0 mm 0.00 in0.0 mm 0.01 in0.3 mm
06:45 PM 59.3°F15.2°C 0.0°F-17.8°C 0% Calm Calm -- 29.79 in1008.8 mb 0.00 in0.0 mm 0.00 in0.0 mm 0.01 in0.3 mm
06:40 PM 59.3°F15.2°C 0.0°F-17.8°C 0% Calm Calm -- 29.78 in1008.5 mb 0.00 in0.0 mm 0.00 in0.0 mm 0.01 in0.3 mm
06:30 PM 59.4°F15.2°C 0.0°F-17.8°C 0% Calm Calm -- 29.78 in1008.5 mb 0.00 in0.0 mm 0.00 in0.0 mm 0.01 in0.3 mm
06:25 PM 59.5°F15.3°C 0.0°F-17.8°C 0% Calm Calm -- 29.78 in1008.5 mb 0.00 in0.0 mm 0.00 in0.0 mm 0.01 in0.3 mm
06:20 PM 59.5°F15.3°C 0.0°F-17.8°C 0% Calm Calm -- 29.77 in1008.1 mb 0.00 in0.0 mm 0.00 in0.0 mm 0.01 in0.3 mm
06:15 PM 59.6°F15.3°C 0.0°F-17.8°C 0% Calm Calm -- 29.77 in1008.1 mb 0.00 in0.0 mm 0.00 in0.0 mm 0.01 in0.3 mm
06:10 PM 59.6°F15.3°C 0.0°F-17.8°C 0% Calm Calm -- 29.77 in1008.1 mb 0.00 in0.0 mm 0.00 in0.0 mm 0.01 in0.3 mm
06:00 PM 59.7°F15.4°C 0.0°F-17.8°C 0% Calm Calm -- 29.77 in1008.1 mb 0.00 in0.0 mm 0.00 in0.0 mm 0.01 in0.3 mm
05:55 PM 59.7°F15.4°C 0.0°F-17.8°C 0% Calm Calm -- 29.77 in1008.1 mb 0.00 in0.0 mm 0.00 in0.0 mm 0.01 in0.3 mm
05:50 PM 59.8°F15.4°C 0.0°F-17.8°C 0% Calm Calm -- 29.77 in1008.1 mb 0.00 in0.0 mm 0.00 in0.0 mm 0.01 in0.3 mm
05:45 PM 59.8°F15.4°C 0.0°F-17.8°C 0% Calm Calm -- 29.76 in1007.8 mb 0.00 in0.0 mm 0.00 in0.0 mm 0.01 in0.3 mm
05:40 PM 59.8°F15.4°C 0.0°F-17.8°C 0% Calm Calm -- 29.76 in1007.8 mb 0.00 in0.0 mm 0.00 in0.0 mm 0.01 in0.3 mm
05:30 PM 59.8°F15.4°C 0.0°F-17.8°C 0% Calm Calm -- 29.76 in1007.8 mb 0.00 in0.0 mm 0.00 in0.0 mm 0.01 in0.3 mm
05:25 PM 59.8°F15.4°C 0.0°F-17.8°C 0% Calm Calm -- 29.76 in1007.8 mb 0.00 in0.0 mm 0.00 in0.0 mm 0.01 in0.3 mm
05:20 PM 59.8°F15.4°C 0.0°F-17.8°C 0% Calm Calm -- 29.76 in1007.8 mb 0.00 in0.0 mm 0.00 in0.0 mm 0.01 in0.3 mm
05:15 PM 59.8°F15.4°C 0.0°F-17.8°C 0% Calm Calm -- 29.76 in1007.8 mb 0.00 in0.0 mm 0.00 in0.0 mm 0.01 in0.3 mm
05:10 PM 59.8°F15.4°C 0.0°F-17.8°C 0% Calm Calm -- 29.76 in1007.8 mb 0.00 in0.0 mm 0.00 in0.0 mm 0.01 in0.3 mm
05:00 PM 60.0°F15.6°C 0.0°F-17.8°C 0% Calm Calm -- 29.76 in1007.8 mb 0.00 in0.0 mm 0.00 in0.0 mm 0.01 in0.3 mm
04:55 PM 60.0°F15.6°C 0.0°F-17.8°C 0% Calm Calm -- 29.76 in1007.8 mb 0.00 in0.0 mm 0.00 in0.0 mm 0.01 in0.3 mm
04:50 PM 60.0°F15.6°C 0.0°F-17.8°C 0% Calm Calm -- 29.76 in1007.8 mb 0.00 in0.0 mm 0.00 in0.0 mm 0.01 in0.3 mm
04:45 PM 60.1°F15.6°C 0.0°F-17.8°C 0% Calm Calm -- 29.76 in1007.8 mb 0.00 in0.0 mm 0.00 in0.0 mm 0.01 in0.3 mm
04:40 PM 60.2°F15.7°C 0.0°F-17.8°C 0% Calm Calm -- 29.76 in1007.8 mb 0.00 in0.0 mm 0.00 in0.0 mm 0.01 in0.3 mm
04:30 PM 60.2°F15.7°C 0.0°F-17.8°C 0% Calm Calm -- 29.76 in1007.8 mb 0.00 in0.0 mm 0.00 in0.0 mm 0.01 in0.3 mm
04:25 PM 60.2°F15.7°C 0.0°F-17.8°C 0% Calm Calm -- 29.76 in1007.8 mb 0.00 in0.0 mm 0.00 in0.0 mm 0.01 in0.3 mm
04:20 PM 60.2°F15.7°C 0.0°F-17.8°C 0% Calm Calm -- 29.76 in1007.8 mb 0.00 in0.0 mm 0.00 in0.0 mm 0.01 in0.3 mm
04:15 PM 60.2°F15.7°C 0.0°F-17.8°C 0% Calm Calm -- 29.76 in1007.8 mb 0.00 in0.0 mm 0.00 in0.0 mm 0.01 in0.3 mm
04:10 PM 60.2°F15.7°C 0.0°F-17.8°C 0% Calm Calm -- 29.75 in1007.5 mb 0.00 in0.0 mm 0.00 in0.0 mm 0.01 in0.3 mm
04:05 PM 60.3°F15.7°C 0.0°F-17.8°C 0% Calm Calm -- 29.75 in1007.5 mb 0.00 in0.0 mm 0.00 in0.0 mm 0.01 in0.3 mm
04:00 PM 60.3°F15.7°C 0.0°F-17.8°C 0% Calm Calm -- 29.75 in1007.5 mb 0.00 in0.0 mm 0.00 in0.0 mm 0.01 in0.3 mm
03:55 PM 60.3°F15.7°C 0.0°F-17.8°C 0% Calm Calm -- 29.75 in1007.5 mb 0.00 in0.0 mm 0.00 in0.0 mm 0.01 in0.3 mm
03:50 PM 60.3°F15.7°C 0.0°F-17.8°C 0% Calm Calm -- 29.75 in1007.5 mb 0.00 in0.0 mm 0.00 in0.0 mm 0.01 in0.3 mm
03:45 PM 60.2°F15.7°C 0.0°F-17.8°C 0% Calm Calm -- 29.75 in1007.5 mb 0.00 in0.0 mm 0.00 in0.0 mm 0.01 in0.3 mm
03:40 PM 60.2°F15.7°C 0.0°F-17.8°C 0% Calm Calm -- 29.76 in1007.8 mb 0.00 in0.0 mm 0.00 in0.0 mm 0.01 in0.3 mm
03:30 PM 60.2°F15.7°C 0.0°F-17.8°C 0% Calm Calm -- 29.75 in1007.5 mb 0.00 in0.0 mm 0.00 in0.0 mm 0.01 in0.3 mm
03:25 PM 60.2°F15.7°C 0.0°F-17.8°C 0% Calm Calm -- 29.75 in1007.5 mb 0.00 in0.0 mm 0.00 in0.0 mm 0.01 in0.3 mm
03:20 PM 60.3°F15.7°C 0.0°F-17.8°C 0% Calm Calm -- 29.75 in1007.5 mb 0.00 in0.0 mm 0.00 in0.0 mm 0.01 in0.3 mm
03:15 PM 60.3°F15.7°C 0.0°F-17.8°C 0% Calm Calm -- 29.75 in1007.5 mb 0.00 in0.0 mm 0.00 in0.0 mm 0.01 in0.3 mm
03:10 PM 60.3°F15.7°C 0.0°F-17.8°C 0% Calm Calm -- 29.75 in1007.5 mb 0.00 in0.0 mm 0.00 in0.0 mm 0.01 in0.3 mm
03:00 PM 60.4°F15.8°C 0.0°F-17.8°C 0% Calm Calm -- 29.75 in1007.5 mb 0.00 in0.0 mm 0.00 in0.0 mm 0.01 in0.3 mm
02:55 PM 60.4°F15.8°C 0.0°F-17.8°C 0% Calm Calm -- 29.75 in1007.5 mb 0.00 in0.0 mm 0.00 in0.0 mm 0.01 in0.3 mm
02:50 PM 60.3°F15.7°C 0.0°F-17.8°C 0% Calm Calm -- 29.75 in1007.5 mb 0.00 in0.0 mm 0.00 in0.0 mm 0.01 in0.3 mm
02:45 PM 60.4°F15.8°C 0.0°F-17.8°C 0% Calm Calm -- 29.75 in1007.5 mb 0.00 in0.0 mm 0.00 in0.0 mm 0.01 in0.3 mm
02:40 PM 60.4°F15.8°C 0.0°F-17.8°C 0% Calm Calm -- 29.75 in1007.5 mb 0.00 in0.0 mm 0.00 in0.0 mm 0.01 in0.3 mm
02:30 PM 60.3°F15.7°C 0.0°F-17.8°C 0% Calm Calm -- 29.75 in1007.5 mb 0.00 in0.0 mm 0.00 in0.0 mm 0.01 in0.3 mm
02:25 PM 60.2°F15.7°C 0.0°F-17.8°C 0% Calm Calm -- 29.75 in1007.5 mb 0.00 in0.0 mm 0.00 in0.0 mm 0.01 in0.3 mm
02:20 PM 60.2°F15.7°C 0.0°F-17.8°C 0% Calm Calm -- 29.75 in1007.5 mb 0.00 in0.0 mm 0.00 in0.0 mm 0.01 in0.3 mm
02:15 PM 60.2°F15.7°C 0.0°F-17.8°C 0% Calm Calm -- 29.75 in1007.5 mb 0.00 in0.0 mm 0.00 in0.0 mm 0.01 in0.3 mm
02:10 PM 60.2°F15.7°C 0.0°F-17.8°C 0% Calm Calm -- 29.75 in1007.5 mb 0.00 in0.0 mm 0.00 in0.0 mm 0.01 in0.3 mm
02:00 PM 60.1°F15.6°C 0.0°F-17.8°C 0% Calm Calm -- 29.75 in1007.5 mb 0.00 in0.0 mm 0.00 in0.0 mm 0.01 in0.3 mm
01:55 PM 60.1°F15.6°C 0.0°F-17.8°C 0% Calm Calm -- 29.75 in1007.5 mb 0.00 in0.0 mm 0.00 in0.0 mm 0.01 in0.3 mm
01:50 PM 60.1°F15.6°C 0.0°F-17.8°C 0% Calm Calm -- 29.76 in1007.8 mb 0.00 in0.0 mm 0.00 in0.0 mm 0.01 in0.3 mm
01:45 PM 60.1°F15.6°C 0.0°F-17.8°C 0% Calm Calm -- 29.75 in1007.5 mb 0.00 in0.0 mm 0.00 in0.0 mm 0.01 in0.3 mm
01:40 PM 60.1°F15.6°C 0.0°F-17.8°C 0% Calm Calm -- 29.76 in1007.8 mb 0.00 in0.0 mm 0.00 in0.0 mm 0.01 in0.3 mm
01:30 PM 60.1°F15.6°C 0.0°F-17.8°C 0% Calm Calm -- 29.76 in1007.8 mb 0.00 in0.0 mm 0.00 in0.0 mm 0.01 in0.3 mm
01:25 PM 60.1°F15.6°C 0.0°F-17.8°C 0% Calm Calm -- 29.77 in1008.1 mb 0.00 in0.0 mm 0.00 in0.0 mm 0.01 in0.3 mm
01:20 PM 60.1°F15.6°C 0.0°F-17.8°C 0% Calm Calm -- 29.77 in1008.1 mb 0.00 in0.0 mm 0.00 in0.0 mm 0.01 in0.3 mm
01:15 PM 60.2°F15.7°C 0.0°F-17.8°C 0% Calm Calm -- 29.77 in1008.1 mb 0.00 in0.0 mm 0.00 in0.0 mm 0.01 in0.3 mm
01:10 PM 60.1°F15.6°C 0.0°F-17.8°C 0% Calm Calm -- 29.77 in1008.1 mb 0.00 in0.0 mm 0.00 in0.0 mm 0.01 in0.3 mm
01:05 PM 60.0°F15.6°C 0.0°F-17.8°C 0% Calm Calm -- 29.77 in1008.1 mb 0.00 in0.0 mm 0.00 in0.0 mm 0.01 in0.3 mm
01:00 PM 60.0°F15.6°C 0.0°F-17.8°C 0% Calm Calm -- 29.77 in1008.1 mb 0.00 in0.0 mm 0.00 in0.0 mm 0.01 in0.3 mm
12:55 PM 59.9°F15.5°C 0.0°F-17.8°C 0% Calm Calm -- 29.78 in1008.5 mb 0.00 in0.0 mm 0.00 in0.0 mm 0.01 in0.3 mm
12:50 PM 59.8°F15.4°C 0.0°F-17.8°C 0% Calm Calm -- 29.77 in1008.1 mb 0.00 in0.0 mm 0.00 in0.0 mm 0.01 in0.3 mm
12:45 PM 59.8°F15.4°C 0.0°F-17.8°C 0% Calm Calm -- 29.78 in1008.5 mb 0.00 in0.0 mm 0.00 in0.0 mm 0.01 in0.3 mm
12:40 PM 59.7°F15.4°C 0.0°F-17.8°C 0% Calm Calm -- 29.78 in1008.5 mb 0.00 in0.0 mm 0.00 in0.0 mm 0.01 in0.3 mm
12:35 PM 59.7°F15.4°C 0.0°F-17.8°C 0% Calm Calm -- 29.78 in1008.5 mb 0.00 in0.0 mm 0.00 in0.0 mm 0.01 in0.3 mm
12:25 PM 59.6°F15.3°C 0.0°F-17.8°C 0% Calm Calm -- 29.79 in1008.8 mb 0.00 in0.0 mm 0.00 in0.0 mm 0.01 in0.3 mm
12:20 PM 59.6°F15.3°C 0.0°F-17.8°C 0% Calm Calm -- 29.79 in1008.8 mb 0.00 in0.0 mm 0.00 in0.0 mm 0.01 in0.3 mm
12:15 PM 59.5°F15.3°C 0.0°F-17.8°C 0% Calm Calm -- 29.79 in1008.8 mb 0.00 in0.0 mm 0.00 in0.0 mm 0.01 in0.3 mm
12:10 PM 59.5°F15.3°C 0.0°F-17.8°C 0% Calm Calm -- 29.79 in1008.8 mb 0.00 in0.0 mm 0.00 in0.0 mm 0.01 in0.3 mm
12:00 PM 59.5°F15.3°C 0.0°F-17.8°C 0% Calm Calm -- 29.80 in1009.1 mb 0.00 in0.0 mm 0.00 in0.0 mm 0.01 in0.3 mm
11:55 AM 59.5°F15.3°C 0.0°F-17.8°C 0% Calm Calm -- 29.80 in1009.1 mb 0.00 in0.0 mm 0.00 in0.0 mm 0.01 in0.3 mm
11:50 AM 59.5°F15.3°C 0.0°F-17.8°C 0% Calm Calm -- 29.80 in1009.1 mb 0.00 in0.0 mm 0.00 in0.0 mm 0.01 in0.3 mm
11:45 AM 59.5°F15.3°C 0.0°F-17.8°C 0% Calm Calm -- 29.80 in1009.1 mb 0.00 in0.0 mm 0.00 in0.0 mm 0.01 in0.3 mm
11:30 AM 59.4°F15.2°C 0.0°F-17.8°C 0% Calm Calm -- 29.79 in1008.8 mb 0.00 in0.0 mm 0.00 in0.0 mm 0.01 in0.3 mm
11:25 AM 59.3°F15.2°C 0.0°F-17.8°C 0% Calm Calm -- 29.80 in1009.1 mb 0.00 in0.0 mm 0.00 in0.0 mm 0.01 in0.3 mm
11:20 AM 59.4°F15.2°C 0.0°F-17.8°C 0% Calm Calm -- 29.79 in1008.8 mb 0.00 in0.0 mm 0.00 in0.0 mm 0.01 in0.3 mm
11:15 AM 59.5°F15.3°C 0.0°F-17.8°C 0% Calm Calm -- 29.79 in1008.8 mb 0.00 in0.0 mm 0.00 in0.0 mm 0.01 in0.3 mm
11:10 AM 59.4°F15.2°C 0.0°F-17.8°C 0% Calm Calm -- 29.79 in1008.8 mb 0.00 in0.0 mm 0.00 in0.0 mm 0.01 in0.3 mm
11:00 AM 59.3°F15.2°C 0.0°F-17.8°C 0% Calm Calm -- 29.79 in1008.8 mb 0.00 in0.0 mm 0.00 in0.0 mm 0.01 in0.3 mm
10:55 AM 59.3°F15.2°C 0.0°F-17.8°C 0% Calm Calm -- 29.79 in1008.8 mb 0.00 in0.0 mm 0.00 in0.0 mm 0.01 in0.3 mm
10:50 AM 59.2°F15.1°C 0.0°F-17.8°C 0% Calm Calm -- 29.79 in1008.8 mb 0.00 in0.0 mm 0.00 in0.0 mm 0.01 in0.3 mm
10:45 AM 59.2°F15.1°C 0.0°F-17.8°C 0% Calm Calm -- 29.79 in1008.8 mb 0.00 in0.0 mm 0.00 in0.0 mm 0.01 in0.3 mm
10:40 AM 59.1°F15.1°C 0.0°F-17.8°C 0% Calm Calm -- 29.79 in1008.8 mb 0.00 in0.0 mm 0.00 in0.0 mm 0.01 in0.3 mm
10:30 AM 59.0°F15.0°C 0.0°F-17.8°C 0% Calm Calm -- 29.79 in1008.8 mb 0.00 in0.0 mm 0.00 in0.0 mm 0.01 in0.3 mm
10:25 AM 59.0°F15.0°C 0.0°F-17.8°C 0% Calm Calm -- 29.79 in1008.8 mb 0.00 in0.0 mm 0.00 in0.0 mm 0.01 in0.3 mm
10:20 AM 58.9°F14.9°C 0.0°F-17.8°C 0% Calm Calm -- 29.79 in1008.8 mb 0.00 in0.0 mm 0.00 in0.0 mm 0.01 in0.3 mm
10:15 AM 58.9°F14.9°C 0.0°F-17.8°C 0% Calm Calm -- 29.79 in1008.8 mb 0.00 in0.0 mm 0.00 in0.0 mm 0.01 in0.3 mm
10:10 AM 58.9°F14.9°C 0.0°F-17.8°C 0% Calm Calm -- 29.79 in1008.8 mb 0.00 in0.0 mm 0.00 in0.0 mm 0.01 in0.3 mm
10:05 AM 58.9°F14.9°C 0.0°F-17.8°C 0% Calm Calm -- 29.79 in1008.8 mb 0.00 in0.0 mm 0.00 in0.0 mm 0.01 in0.3 mm
10:00 AM 58.8°F14.9°C 0.0°F-17.8°C 0% Calm Calm -- 29.79 in1008.8 mb 0.00 in0.0 mm 0.00 in0.0 mm 0.01 in0.3 mm
09:55 AM 58.7°F14.8°C 0.0°F-17.8°C 0% Calm Calm -- 29.79 in1008.8 mb 0.00 in0.0 mm 0.00 in0.0 mm 0.01 in0.3 mm
09:50 AM 58.7°F14.8°C 0.0°F-17.8°C 0% Calm Calm -- 29.79 in1008.8 mb 0.00 in0.0 mm 0.00 in0.0 mm 0.01 in0.3 mm
09:45 AM 58.7°F14.8°C 0.0°F-17.8°C 0% Calm Calm -- 29.78 in1008.5 mb 0.00 in0.0 mm 0.00 in0.0 mm 0.01 in0.3 mm
09:40 AM 58.7°F14.8°C 0.0°F-17.8°C 0% Calm Calm -- 29.79 in1008.8 mb 0.00 in0.0 mm 0.00 in0.0 mm 0.01 in0.3 mm
09:30 AM 58.6°F14.8°C 0.0°F-17.8°C 0% Calm Calm -- 29.78 in1008.5 mb 0.00 in0.0 mm 0.00 in0.0 mm 0.01 in0.3 mm
09:25 AM 58.7°F14.8°C 0.0°F-17.8°C 0% Calm Calm -- 29.78 in1008.5 mb 0.00 in0.0 mm 0.00 in0.0 mm 0.01 in0.3 mm
09:20 AM 58.6°F14.8°C 0.0°F-17.8°C 0% Calm Calm -- 29.78 in1008.5 mb 0.00 in0.0 mm 0.00 in0.0 mm 0.01 in0.3 mm
09:15 AM 58.6°F14.8°C 0.0°F-17.8°C 0% Calm Calm -- 29.78 in1008.5 mb 0.00 in0.0 mm 0.00 in0.0 mm 0.01 in0.3 mm
09:10 AM 58.6°F14.8°C 0.0°F-17.8°C 0% Calm Calm -- 29.77 in1008.1 mb 0.00 in0.0 mm 0.00 in0.0 mm 0.01 in0.3 mm
09:00 AM 58.8°F14.9°C 0.0°F-17.8°C 0% Calm Calm -- 29.76 in1007.8 mb 0.00 in0.0 mm 0.00 in0.0 mm 0.01 in0.3 mm
08:55 AM 58.8°F14.9°C 0.0°F-17.8°C 0% Calm Calm -- 29.76 in1007.8 mb 0.00 in0.0 mm 0.00 in0.0 mm 0.01 in0.3 mm
08:50 AM 58.7°F14.8°C 0.0°F-17.8°C 0% Calm Calm -- 29.76 in1007.8 mb 0.00 in0.0 mm 0.00 in0.0 mm 0.01 in0.3 mm
08:45 AM 58.7°F14.8°C 0.0°F-17.8°C 0% Calm Calm -- 29.76 in1007.8 mb 0.00 in0.0 mm 0.00 in0.0 mm 0.01 in0.3 mm
08:40 AM 58.6°F14.8°C 0.0°F-17.8°C 0% Calm Calm -- 29.75 in1007.5 mb 0.00 in0.0 mm 0.00 in0.0 mm 0.01 in0.3 mm
08:30 AM 58.6°F14.8°C 0.0°F-17.8°C 0% Calm Calm -- 29.75 in1007.5 mb 0.00 in0.0 mm 0.00 in0.0 mm 0.01 in0.3 mm
08:25 AM 58.6°F14.8°C 0.0°F-17.8°C 0% Calm Calm -- 29.75 in1007.5 mb 0.00 in0.0 mm 0.00 in0.0 mm 0.01 in0.3 mm
08:20 AM 58.6°F14.8°C 0.0°F-17.8°C 0% Calm Calm -- 29.75 in1007.5 mb 0.00 in0.0 mm 0.00 in0.0 mm 0.01 in0.3 mm
08:15 AM 58.6°F14.8°C 0.0°F-17.8°C 0% Calm Calm -- 29.75 in1007.5 mb 0.00 in0.0 mm 0.00 in0.0 mm 0.01 in0.3 mm
08:10 AM 58.6°F14.8°C 0.0°F-17.8°C 0% Calm Calm -- 29.75 in1007.5 mb 0.00 in0.0 mm 0.00 in0.0 mm 0.01 in0.3 mm
08:00 AM 58.6°F14.8°C 0.0°F-17.8°C 0% Calm Calm -- 29.75 in1007.5 mb 0.00 in0.0 mm 0.00 in0.0 mm 0.01 in0.3 mm
07:55 AM 58.5°F14.7°C 0.0°F-17.8°C 0% Calm Calm -- 29.75 in1007.5 mb 0.00 in0.0 mm 0.00 in0.0 mm 0.01 in0.3 mm
07:50 AM 58.5°F14.7°C 0.0°F-17.8°C 0% Calm Calm -- 29.75 in1007.5 mb 0.00 in0.0 mm 0.00 in0.0 mm 0.01 in0.3 mm
07:45 AM 58.5°F14.7°C 0.0°F-17.8°C 0% Calm Calm -- 29.74 in1007.1 mb 0.00 in0.0 mm 0.00 in0.0 mm 0.01 in0.3 mm
07:40 AM 58.5°F14.7°C 0.0°F-17.8°C 0% Calm Calm -- 29.74 in1007.1 mb 0.00 in0.0 mm 0.00 in0.0 mm 0.01 in0.3 mm
07:30 AM 58.5°F14.7°C 0.0°F-17.8°C 0% Calm Calm -- 29.74 in1007.1 mb 0.00 in0.0 mm 0.00 in0.0 mm 0.01 in0.3 mm
07:25 AM 58.4°F14.7°C 0.0°F-17.8°C 0% Calm Calm -- 29.74 in1007.1 mb 0.00 in0.0 mm 0.00 in0.0 mm 0.01 in0.3 mm
07:20 AM 58.4°F14.7°C 0.0°F-17.8°C 0% Calm Calm -- 29.74 in1007.1 mb 0.00 in0.0 mm 0.00 in0.0 mm 0.01 in0.3 mm
07:15 AM 58.3°F14.6°C 0.0°F-17.8°C 0% Calm Calm -- 29.74 in1007.1 mb 0.00 in0.0 mm 0.00 in0.0 mm 0.01 in0.3 mm
07:10 AM 58.2°F14.6°C 0.0°F-17.8°C 0% Calm Calm -- 29.74 in1007.1 mb 0.00 in0.0 mm 0.00 in0.0 mm 0.01 in0.3 mm
07:00 AM 58.3°F14.6°C 0.0°F-17.8°C 0% Calm Calm -- 29.73 in1006.8 mb 0.00 in0.0 mm 0.00 in0.0 mm 0.01 in0.3 mm
06:55 AM 58.3°F14.6°C 0.0°F-17.8°C 0% Calm Calm -- 29.73 in1006.8 mb 0.00 in0.0 mm 0.00 in0.0 mm 0.01 in0.3 mm
06:50 AM 58.3°F14.6°C 0.0°F-17.8°C 0% Calm Calm -- 29.73 in1006.8 mb 0.00 in0.0 mm 0.00 in0.0 mm 0.01 in0.3 mm
06:45 AM 58.4°F14.7°C 0.0°F-17.8°C 0% Calm Calm -- 29.73 in1006.8 mb 0.00 in0.0 mm 0.00 in0.0 mm 0.01 in0.3 mm
06:40 AM 58.4°F14.7°C 0.0°F-17.8°C 0% Calm Calm -- 29.73 in1006.8 mb 0.00 in0.0 mm 0.00 in0.0 mm 0.01 in0.3 mm
06:30 AM 58.4°F14.7°C 0.0°F-17.8°C 0% Calm Calm -- 29.72 in1006.4 mb 0.00 in0.0 mm 0.00 in0.0 mm 0.01 in0.3 mm
06:25 AM 58.4°F14.7°C 0.0°F-17.8°C 0% Calm Calm -- 29.72 in1006.4 mb 0.00 in0.0 mm 0.00 in0.0 mm 0.01 in0.3 mm
06:20 AM 58.4°F14.7°C 0.0°F-17.8°C 0% Calm Calm -- 29.72 in1006.4 mb 0.00 in0.0 mm 0.00 in0.0 mm 0.01 in0.3 mm
06:15 AM 58.4°F14.7°C 0.0°F-17.8°C 0% Calm Calm -- 29.72 in1006.4 mb 0.00 in0.0 mm 0.00 in0.0 mm 0.01 in0.3 mm
06:10 AM 58.5°F14.7°C 0.0°F-17.8°C 0% Calm Calm -- 29.72 in1006.4 mb 0.00 in0.0 mm 0.00 in0.0 mm 0.01 in0.3 mm
06:00 AM 58.5°F14.7°C 0.0°F-17.8°C 0% Calm Calm -- 29.72 in1006.4 mb 0.00 in0.0 mm 0.00 in0.0 mm 0.01 in0.3 mm
05:55 AM 58.5°F14.7°C 0.0°F-17.8°C 0% Calm Calm -- 29.72 in1006.4 mb 0.00 in0.0 mm 0.00 in0.0 mm 0.01 in0.3 mm
05:50 AM 58.5°F14.7°C 0.0°F-17.8°C 0% Calm Calm -- 29.71 in1006.1 mb 0.00 in0.0 mm 0.00 in0.0 mm 0.01 in0.3 mm
05:45 AM 58.5°F14.7°C 0.0°F-17.8°C 0% Calm Calm -- 29.71 in1006.1 mb 0.00 in0.0 mm 0.00 in0.0 mm 0.01 in0.3 mm
05:40 AM 58.6°F14.8°C 0.0°F-17.8°C 0% Calm Calm -- 29.71 in1006.1 mb 0.00 in0.0 mm 0.00 in0.0 mm 0.01 in0.3 mm
05:35 AM 58.6°F14.8°C 0.0°F-17.8°C 0% Calm Calm -- 29.71 in1006.1 mb 0.00 in0.0 mm 0.00 in0.0 mm 0.01 in0.3 mm
05:30 AM 58.6°F14.8°C 0.0°F-17.8°C 0% Calm Calm -- 29.70 in1005.8 mb 0.00 in0.0 mm 0.00 in0.0 mm 0.01 in0.3 mm
05:25 AM 58.6°F14.8°C 0.0°F-17.8°C 0% Calm Calm -- 29.70 in1005.8 mb 0.00 in0.0 mm 0.00 in0.0 mm 0.01 in0.3 mm
05:20 AM 58.6°F14.8°C 0.0°F-17.8°C 0% Calm Calm -- 29.70 in1005.8 mb 0.00 in0.0 mm 0.00 in0.0 mm 0.01 in0.3 mm
05:15 AM 58.6°F14.8°C 0.0°F-17.8°C 0% Calm Calm -- 29.70 in1005.8 mb 0.00 in0.0 mm 0.00 in0.0 mm 0.01 in0.3 mm
05:10 AM 58.7°F14.8°C 0.0°F-17.8°C 0% Calm Calm -- 29.70 in1005.8 mb 0.00 in0.0 mm 0.00 in0.0 mm 0.01 in0.3 mm
05:00 AM 58.7°F14.8°C 0.0°F-17.8°C 0% Calm Calm -- 29.70 in1005.8 mb 0.00 in0.0 mm 0.00 in0.0 mm 0.01 in0.3 mm
04:55 AM 58.7°F14.8°C 0.0°F-17.8°C 0% Calm Calm -- 29.70 in1005.8 mb 0.00 in0.0 mm 0.00 in0.0 mm 0.01 in0.3 mm
04:50 AM 58.6°F14.8°C 0.0°F-17.8°C 0% Calm Calm -- 29.70 in1005.8 mb 0.00 in0.0 mm 0.00 in0.0 mm 0.01 in0.3 mm
04:45 AM 58.7°F14.8°C 0.0°F-17.8°C 0% Calm Calm -- 29.70 in1005.8 mb 0.00 in0.0 mm 0.00 in0.0 mm 0.01 in0.3 mm
04:40 AM 58.7°F14.8°C 0.0°F-17.8°C 0% Calm Calm -- 29.70 in1005.8 mb 0.00 in0.0 mm 0.00 in0.0 mm 0.01 in0.3 mm
04:30 AM 58.7°F14.8°C 0.0°F-17.8°C 0% Calm Calm -- 29.70 in1005.8 mb 0.00 in0.0 mm 0.00 in0.0 mm 0.01 in0.3 mm
04:25 AM 58.8°F14.9°C 0.0°F-17.8°C 0% Calm Calm -- 29.70 in1005.8 mb 0.00 in0.0 mm 0.00 in0.0 mm 0.01 in0.3 mm
04:20 AM 58.7°F14.8°C 0.0°F-17.8°C 0% Calm Calm -- 29.70 in1005.8 mb 0.00 in0.0 mm 0.00 in0.0 mm 0.01 in0.3 mm
04:15 AM 58.8°F14.9°C 0.0°F-17.8°C 0% Calm Calm -- 29.70 in1005.8 mb 0.00 in0.0 mm 0.00 in0.0 mm 0.01 in0.3 mm
04:10 AM 58.7°F14.8°C 0.0°F-17.8°C 0% Calm Calm -- 29.70 in1005.8 mb 0.00 in0.0 mm 0.00 in0.0 mm 0.01 in0.3 mm
04:05 AM 58.7°F14.8°C 0.0°F-17.8°C 0% Calm Calm -- 29.70 in1005.8 mb 0.00 in0.0 mm 0.00 in0.0 mm 0.01 in0.3 mm
04:00 AM 58.7°F14.8°C 0.0°F-17.8°C 0% Calm Calm -- 29.70 in1005.8 mb 0.00 in0.0 mm 0.00 in0.0 mm 0.01 in0.3 mm
03:55 AM 58.7°F14.8°C 0.0°F-17.8°C 0% Calm Calm -- 29.70 in1005.8 mb 0.00 in0.0 mm 0.00 in0.0 mm 0.01 in0.3 mm
03:50 AM 58.6°F14.8°C 0.0°F-17.8°C 0% Calm Calm -- 29.71 in1006.1 mb 0.00 in0.0 mm 0.00 in0.0 mm 0.01 in0.3 mm
03:45 AM 58.7°F14.8°C 0.0°F-17.8°C 0% Calm Calm -- 29.70 in1005.8 mb 0.00 in0.0 mm 0.00 in0.0 mm 0.01 in0.3 mm
03:40 AM 58.7°F14.8°C 0.0°F-17.8°C 0% Calm Calm -- 29.70 in1005.8 mb 0.00 in0.0 mm 0.00 in0.0 mm 0.01 in0.3 mm
03:30 AM 58.7°F14.8°C 0.0°F-17.8°C 0% Calm Calm -- 29.70 in1005.8 mb 0.00 in0.0 mm 0.00 in0.0 mm 0.01 in0.3 mm
03:25 AM 58.6°F14.8°C 0.0°F-17.8°C 0% Calm Calm -- 29.70 in1005.8 mb 0.00 in0.0 mm 0.00 in0.0 mm 0.01 in0.3 mm
03:20 AM 58.6°F14.8°C 0.0°F-17.8°C 0% Calm Calm -- 29.70 in1005.8 mb 0.00 in0.0 mm 0.00 in0.0 mm 0.01 in0.3 mm
03:15 AM 58.7°F14.8°C 0.0°F-17.8°C 0% Calm Calm -- 29.71 in1006.1 mb 0.00 in0.0 mm 0.00 in0.0 mm 0.01 in0.3 mm
03:10 AM 58.6°F14.8°C 0.0°F-17.8°C 0% Calm Calm -- 29.70 in1005.8 mb 0.00 in0.0 mm 0.00 in0.0 mm 0.01 in0.3 mm
03:00 AM 58.6°F14.8°C 0.0°F-17.8°C 0% Calm Calm -- 29.70 in1005.8 mb 0.00 in0.0 mm 0.00 in0.0 mm 0.01 in0.3 mm
02:55 AM 58.6°F14.8°C 0.0°F-17.8°C 0% Calm Calm -- 29.70 in1005.8 mb 0.00 in0.0 mm 0.00 in0.0 mm 0.01 in0.3 mm
02:50 AM 58.6°F14.8°C 0.0°F-17.8°C 0% Calm Calm -- 29.70 in1005.8 mb 0.00 in0.0 mm 0.00 in0.0 mm 0.01 in0.3 mm
02:45 AM 58.6°F14.8°C 0.0°F-17.8°C 0% Calm Calm -- 29.70 in1005.8 mb 0.00 in0.0 mm 0.00 in0.0 mm 0.01 in0.3 mm
02:40 AM 58.6°F14.8°C 0.0°F-17.8°C 0% Calm Calm -- 29.70 in1005.8 mb 0.00 in0.0 mm 0.00 in0.0 mm 0.01 in0.3 mm
02:30 AM 58.6°F14.8°C 0.0°F-17.8°C 0% Calm Calm -- 29.69 in1005.4 mb 0.00 in0.0 mm 0.00 in0.0 mm 0.01 in0.3 mm
02:25 AM 58.6°F14.8°C 0.0°F-17.8°C 0% Calm Calm -- 29.70 in1005.8 mb 0.00 in0.0 mm 0.00 in0.0 mm 0.01 in0.3 mm
02:20 AM 58.6°F14.8°C 0.0°F-17.8°C 0% Calm Calm -- 29.70 in1005.8 mb 0.00 in0.0 mm 0.00 in0.0 mm 0.01 in0.3 mm
02:15 AM 58.6°F14.8°C 0.0°F-17.8°C 0% Calm Calm -- 29.70 in1005.8 mb 0.00 in0.0 mm 0.00 in0.0 mm 0.01 in0.3 mm
02:10 AM 58.6°F14.8°C 0.0°F-17.8°C 0% Calm Calm -- 29.70 in1005.8 mb 0.00 in0.0 mm 0.00 in0.0 mm 0.01 in0.3 mm
02:05 AM 58.6°F14.8°C 0.0°F-17.8°C 0% Calm Calm -- 29.69 in1005.4 mb 0.00 in0.0 mm 0.00 in0.0 mm 0.01 in0.3 mm
02:00 AM 58.6°F14.8°C 0.0°F-17.8°C 0% Calm Calm -- 29.70 in1005.8 mb 0.00 in0.0 mm 0.00 in0.0 mm 0.01 in0.3 mm
01:55 AM 58.6°F14.8°C 0.0°F-17.8°C 0% Calm Calm -- 29.70 in1005.8 mb 0.01 in0.3 mm 0.00 in0.0 mm 0.01 in0.3 mm
01:50 AM 58.6°F14.8°C 0.0°F-17.8°C 0% Calm Calm -- 29.70 in1005.8 mb 0.01 in0.3 mm 0.00 in0.0 mm 0.01 in0.3 mm
01:45 AM 58.6°F14.8°C 0.0°F-17.8°C 0% Calm Calm -- 29.70 in1005.8 mb 0.01 in0.3 mm 0.00 in0.0 mm 0.01 in0.3 mm
01:40 AM 58.6°F14.8°C 0.0°F-17.8°C 0% Calm Calm -- 29.69 in1005.4 mb 0.01 in0.3 mm 0.00 in0.0 mm 0.01 in0.3 mm
01:30 AM 58.6°F14.8°C 0.0°F-17.8°C 0% Calm Calm -- 29.70 in1005.8 mb 0.01 in0.3 mm 0.00 in0.0 mm 0.01 in0.3 mm
01:25 AM 58.6°F14.8°C 0.0°F-17.8°C 0% Calm Calm -- 29.69 in1005.4 mb 0.01 in0.3 mm 0.00 in0.0 mm 0.01 in0.3 mm
01:20 AM 58.6°F14.8°C 0.0°F-17.8°C 0% Calm Calm -- 29.70 in1005.8 mb 0.01 in0.3 mm 0.00 in0.0 mm 0.01 in0.3 mm
01:15 AM 58.6°F14.8°C 0.0°F-17.8°C 0% Calm Calm -- 29.70 in1005.8 mb 0.01 in0.3 mm 0.00 in0.0 mm 0.01 in0.3 mm
01:10 AM 58.6°F14.8°C 0.0°F-17.8°C 0% Calm Calm -- 29.70 in1005.8 mb 0.01 in0.3 mm 0.00 in0.0 mm 0.01 in0.3 mm
01:05 AM 58.6°F14.8°C 0.0°F-17.8°C 0% Calm Calm -- 29.69 in1005.4 mb 0.01 in0.3 mm 0.00 in0.0 mm 0.01 in0.3 mm
01:00 AM 58.6°F14.8°C 0.0°F-17.8°C 0% Calm Calm -- 29.70 in1005.8 mb 0.01 in0.3 mm 0.00 in0.0 mm 0.01 in0.3 mm
12:55 AM 58.5°F14.7°C 0.0°F-17.8°C 0% Calm Calm -- 29.70 in1005.8 mb 0.01 in0.3 mm 0.00 in0.0 mm 0.01 in0.3 mm
12:50 AM 58.5°F14.7°C 0.0°F-17.8°C 0% Calm Calm -- 29.70 in1005.8 mb 0.01 in0.3 mm 0.00 in0.0 mm 0.01 in0.3 mm
12:45 AM 58.5°F14.7°C 0.0°F-17.8°C 0% Calm Calm -- 29.71 in1006.1 mb 0.01 in0.3 mm 0.12 in3.0 mm 0.01 in0.3 mm
12:40 AM 58.5°F14.7°C 0.0°F-17.8°C 0% Calm Calm -- 29.71 in1006.1 mb 0.00 in0.0 mm 0.00 in0.0 mm 0.00 in0.0 mm
12:30 AM 58.5°F14.7°C 0.0°F-17.8°C 0% Calm Calm -- 29.71 in1006.1 mb 0.00 in0.0 mm 0.00 in0.0 mm 0.00 in0.0 mm
12:25 AM 58.5°F14.7°C 0.0°F-17.8°C 0% Calm Calm -- 29.71 in1006.1 mb 0.00 in0.0 mm 0.00 in0.0 mm 0.00 in0.0 mm
12:20 AM 58.5°F14.7°C 0.0°F-17.8°C 0% Calm Calm -- 29.71 in1006.1 mb 0.00 in0.0 mm 0.00 in0.0 mm 0.00 in0.0 mm
12:15 AM 58.5°F14.7°C 0.0°F-17.8°C 0% Calm Calm -- 29.71 in1006.1 mb 0.00 in0.0 mm 0.00 in0.0 mm 0.00 in0.0 mm
12:10 AM 58.5°F14.7°C 0.0°F-17.8°C 0% Calm Calm -- 29.71 in1006.1 mb 0.00 in0.0 mm 0.00 in0.0 mm 0.00 in0.0 mm
12:00 AM 58.5°F14.7°C 0.0°F-17.8°C 0% Calm Calm -- 29.70 in1005.8 mb 0.00 in0.0 mm 0.00 in0.0 mm 0.00 in0.0 mm